Lake Murray Shores, South Carolina
Current Conditions -  °F | °C
As of 4:56 AM on Thursday 29 Jan 2015 (Local Time) from KCAE Reporting Station
Clear Clear  
Wind Chill: 21°   Ceiling: Unl
Heat Index: 26°   Visibility: 10mi
Dew Point: 22°   Wind: 5mph
Humidity: 84%   Direction: 250°WSW
Pressure: 30.33"   Gusts: NA
Location:  33.8822°N, 81.433°W
Report Text: KCAE 290956Z 25004KT 10SM CLR M03/M06 A3033 RMK AO2 SLP273 T10331056
Loading
Personal Weather Stations






























Interactive Weather Map New forecast layout! Learn more

10-Day Weather Forecast

Advertisements
Track Severe Weather on mobile